createdAt,value
2022-12-18T00:01:59.798Z,-3.52
2022-12-18T00:04:49.362Z,-3.43
2022-12-18T00:07:36.939Z,-3.25
2022-12-18T00:10:23.966Z,-3.35
2022-12-18T00:13:10.542Z,-3.37
2022-12-18T00:16:06.243Z,-3.28
2022-12-18T00:18:57.710Z,-3.46
2022-12-18T00:21:45.298Z,-3.34
2022-12-18T00:24:32.081Z,-3.38
2022-12-18T00:27:18.492Z,-3.37
2022-12-18T00:30:06.339Z,-3.63
2022-12-18T00:32:53.406Z,-3.51
2022-12-18T00:35:39.953Z,-3.58
2022-12-18T00:38:26.985Z,-3.86
2022-12-18T00:41:35.336Z,-3.67
2022-12-18T00:44:23.647Z,-3.58
2022-12-18T00:47:10.730Z,-3.85
2022-12-18T00:49:57.571Z,-3.64
2022-12-18T00:52:44.087Z,-3.61
2022-12-18T00:55:30.980Z,-3.58
2022-12-18T00:58:18.054Z,-3.70
2022-12-18T01:01:07.731Z,-3.63
2022-12-18T01:03:54.721Z,-3.63
2022-12-18T01:06:44.966Z,-3.98
2022-12-18T01:09:31.293Z,-3.63
2022-12-18T01:12:18.411Z,-3.61
2022-12-18T01:15:09.230Z,-3.64
2022-12-18T01:17:57.392Z,-3.77
2022-12-18T01:20:46.529Z,-3.74
2022-12-18T01:23:33.087Z,-3.89
2022-12-18T01:26:21.046Z,-3.73
2022-12-18T01:29:07.688Z,-3.67
2022-12-18T01:31:56.660Z,-3.77
2022-12-18T01:34:43.372Z,-3.74
2022-12-18T01:37:29.613Z,-3.98
2022-12-18T01:40:16.438Z,-3.92
2022-12-18T01:43:02.756Z,-4.07
2022-12-18T01:45:49.900Z,-4.05
2022-12-18T01:48:36.505Z,-4.00
2022-12-18T01:51:24.581Z,-4.13
2022-12-18T01:54:10.830Z,-4.12
2022-12-18T01:56:57.671Z,-4.13
2022-12-18T01:59:46.881Z,-4.46
2022-12-18T02:02:33.952Z,-4.26
2022-12-18T02:06:06.760Z,-4.07
2022-12-18T02:09:01.490Z,-4.10
2022-12-18T02:12:07.564Z,-4.14
2022-12-18T02:14:57.585Z,-4.13
2022-12-18T02:17:51.951Z,-4.08
2022-12-18T02:20:49.201Z,-4.18
2022-12-18T02:24:04.592Z,-4.10
2022-12-18T02:26:52.358Z,-4.42
2022-12-18T02:29:58.568Z,-4.32
2022-12-18T02:32:52.016Z,-4.21
2022-12-18T02:35:40.191Z,-4.52
2022-12-18T02:38:28.733Z,-4.26
2022-12-18T02:41:18.154Z,-4.33
2022-12-18T02:44:11.118Z,-4.33
2022-12-18T02:46:57.908Z,-4.51
2022-12-18T02:49:59.950Z,-4.33
2022-12-18T02:53:02.790Z,-4.56
2022-12-18T02:56:01.507Z,-4.45
2022-12-18T02:59:03.739Z,-4.61
2022-12-18T03:02:10.802Z,-4.63
2022-12-18T03:05:13.196Z,-4.48
2022-12-18T03:08:10.429Z,-4.52
2022-12-18T03:11:03.769Z,-4.86
2022-12-18T03:13:57.737Z,-4.49
2022-12-18T03:16:46.033Z,-4.49
2022-12-18T03:19:34.302Z,-4.48
2022-12-18T03:22:24.994Z,-4.54
2022-12-18T03:25:15.339Z,-4.63
2022-12-18T03:28:03.677Z,-4.58
2022-12-18T03:30:57.966Z,-4.65
2022-12-18T03:33:48.657Z,-4.50
2022-12-18T03:36:35.936Z,-4.55
2022-12-18T03:39:22.682Z,-4.56
2022-12-18T03:42:22.030Z,-4.84
2022-12-18T03:45:20.632Z,-4.67
2022-12-18T03:48:08.924Z,-4.61
2022-12-18T03:51:07.316Z,-4.67
2022-12-18T03:54:01.826Z,-4.79
2022-12-18T03:56:58.696Z,-4.80
2022-12-18T03:59:47.527Z,-4.71
2022-12-18T04:02:38.530Z,-4.94
2022-12-18T04:05:28.198Z,-4.73
2022-12-18T04:08:15.413Z,-4.81
2022-12-18T04:11:09.619Z,-4.78
2022-12-18T04:14:02.722Z,-4.81
2022-12-18T04:16:53.001Z,-4.76
2022-12-18T04:19:44.427Z,-4.83
2022-12-18T04:22:31.373Z,-5.02
2022-12-18T04:25:24.685Z,-4.86
2022-12-18T04:28:25.214Z,-5.01
2022-12-18T04:31:12.116Z,-4.78
2022-12-18T04:33:59.303Z,-4.98
2022-12-18T04:36:46.435Z,-4.93
2022-12-18T04:39:33.948Z,-4.93
2022-12-18T04:42:25.836Z,-5.09
2022-12-18T04:45:12.366Z,-5.25
2022-12-18T04:47:59.912Z,-5.37
2022-12-18T04:50:48.125Z,-5.12
2022-12-18T04:53:34.924Z,-5.11
2022-12-18T04:56:21.621Z,-5.19
2022-12-18T04:59:07.867Z,-5.13
2022-12-18T05:01:55.031Z,-5.18
2022-12-18T05:04:41.908Z,-5.24
2022-12-18T05:07:28.975Z,-5.12
2022-12-18T05:10:15.335Z,-5.21
2022-12-18T05:13:04.882Z,-5.37
2022-12-18T05:15:54.944Z,-5.18
2022-12-18T05:18:42.312Z,-5.22
2022-12-18T05:21:28.510Z,-5.21
2022-12-18T05:24:15.561Z,-5.30
2022-12-18T05:27:02.880Z,-5.34
2022-12-18T05:29:49.963Z,-5.75
2022-12-18T05:32:36.252Z,-5.36
2022-12-18T05:35:22.912Z,-5.32
2022-12-18T05:38:09.472Z,-5.38
2022-12-18T05:40:56.974Z,-5.48
2022-12-18T05:43:44.015Z,-5.42
2022-12-18T05:46:30.989Z,-5.42
2022-12-18T05:49:17.703Z,-5.36
2022-12-18T05:52:04.823Z,-5.75
2022-12-18T05:54:50.971Z,-5.46
2022-12-18T05:57:40.693Z,-5.77
2022-12-18T06:00:27.027Z,-5.61
2022-12-18T06:03:14.638Z,-5.61
2022-12-18T06:06:01.185Z,-5.67
2022-12-18T06:08:48.062Z,-5.53
2022-12-18T06:11:34.504Z,-5.52
2022-12-18T06:14:22.069Z,-5.57
2022-12-18T06:17:08.867Z,-5.72
2022-12-18T06:19:55.274Z,-5.64
2022-12-18T06:22:41.532Z,-5.71
2022-12-18T06:25:28.375Z,-5.89
2022-12-18T06:28:14.907Z,-5.81
2022-12-18T06:31:07.043Z,-5.83
2022-12-18T06:33:56.035Z,-5.91
2022-12-18T06:36:42.703Z,-5.92
2022-12-18T06:39:31.126Z,-6.02
2022-12-18T06:42:18.035Z,-5.87
2022-12-18T06:45:04.912Z,-5.98
2022-12-18T06:47:52.076Z,-5.90
2022-12-18T06:50:38.429Z,-6.38
2022-12-18T06:53:25.114Z,-5.96
2022-12-18T06:56:11.823Z,-5.95
2022-12-18T06:58:58.848Z,-6.00
2022-12-18T07:01:45.554Z,-6.09
2022-12-18T07:04:33.168Z,-6.26
2022-12-18T07:07:19.933Z,-6.18
2022-12-18T07:10:07.138Z,-5.94
2022-12-18T07:12:53.456Z,-5.82
2022-12-18T07:15:40.329Z,-5.90
2022-12-18T07:18:27.144Z,-5.90
2022-12-18T07:21:16.221Z,-5.86
2022-12-18T07:24:03.754Z,-5.95
2022-12-18T07:26:50.408Z,-5.96
2022-12-18T07:29:36.552Z,-6.02
2022-12-18T07:32:25.817Z,-6.07
2022-12-18T07:35:12.228Z,-6.08
2022-12-18T07:37:59.150Z,-6.04
2022-12-18T07:40:45.614Z,-5.99
2022-12-18T07:43:32.381Z,-6.26
2022-12-18T07:46:23.490Z,-5.92
2022-12-18T07:49:28.491Z,-5.91
2022-12-18T07:52:28.200Z,-6.04
2022-12-18T07:55:26.017Z,-6.16
2022-12-18T07:58:40.390Z,-5.91
2022-12-18T08:01:33.340Z,-6.12
2022-12-18T08:04:28.160Z,-6.17
2022-12-18T08:07:21.356Z,-6.04
2022-12-18T08:10:15.639Z,-6.02
2022-12-18T08:13:16.949Z,-6.11
2022-12-18T08:16:10.703Z,-6.27
2022-12-18T08:19:08.899Z,-5.82
2022-12-18T08:22:04.175Z,-5.89
2022-12-18T08:25:04.942Z,-6.12
2022-12-18T08:27:51.954Z,-5.95
2022-12-18T08:30:39.311Z,-6.06
2022-12-18T08:33:25.800Z,-6.14
2022-12-18T08:36:12.608Z,-6.17
2022-12-18T08:38:58.990Z,-6.07
2022-12-18T08:42:10.044Z,-5.93
2022-12-18T08:44:57.059Z,-5.86
2022-12-18T08:47:43.284Z,-5.94
2022-12-18T08:50:30.148Z,-5.87
2022-12-18T08:53:16.555Z,-5.77
2022-12-18T08:56:03.184Z,-5.71
2022-12-18T08:58:55.969Z,-5.65
2022-12-18T09:01:42.661Z,-5.66
2022-12-18T09:04:29.423Z,-5.66
2022-12-18T09:07:16.838Z,-5.51
2022-12-18T09:10:04.054Z,-5.49
2022-12-18T09:12:50.384Z,-5.56
2022-12-18T09:15:49.591Z,-5.72
2022-12-18T09:18:35.914Z,-5.73
2022-12-18T09:21:22.910Z,-5.64
2022-12-18T09:24:13.559Z,-5.65
2022-12-18T09:27:00.329Z,-5.62
2022-12-18T09:29:46.772Z,-5.79
2022-12-18T09:32:36.328Z,-5.90
2022-12-18T09:35:23.415Z,-5.59
2022-12-18T09:38:17.754Z,-5.80
2022-12-18T09:41:16.610Z,-5.48
2022-12-18T09:44:15.750Z,-5.64
2022-12-18T09:47:16.562Z,-5.80
2022-12-18T09:50:07.082Z,-5.33
2022-12-18T09:52:56.104Z,-5.23
2022-12-18T09:55:44.632Z,-5.29
2022-12-18T09:58:47.969Z,-5.18
2022-12-18T10:01:41.751Z,-5.24
2022-12-18T10:04:32.113Z,-5.33
2022-12-18T10:07:34.475Z,-5.30
2022-12-18T10:10:39.586Z,-5.26
2022-12-18T10:13:35.110Z,-5.46
2022-12-18T10:16:37.980Z,-5.60
2022-12-18T10:19:50.326Z,-5.20
2022-12-18T10:22:48.588Z,-5.10
2022-12-18T10:25:50.706Z,-5.09
2022-12-18T10:28:42.312Z,-5.30
2022-12-18T10:31:29.451Z,-4.92
2022-12-18T10:34:16.259Z,-5.00
2022-12-18T10:37:08.077Z,-5.00
2022-12-18T10:40:22.340Z,-4.94
2022-12-18T10:43:15.681Z,-4.99
2022-12-18T10:46:11.408Z,-4.84
2022-12-18T10:48:59.249Z,-4.82
2022-12-18T10:51:45.836Z,-4.94
2022-12-18T10:54:35.314Z,-4.83
2022-12-18T10:57:27.899Z,-4.69
2022-12-18T11:00:25.239Z,-4.73
2022-12-18T11:03:40.632Z,-4.72
2022-12-18T11:06:28.374Z,-4.64
2022-12-18T11:09:23.191Z,-4.68
2022-12-18T11:12:21.242Z,-4.66
2022-12-18T11:15:08.003Z,-4.88
2022-12-18T11:17:55.122Z,-4.57
2022-12-18T11:20:41.786Z,-4.61
2022-12-18T11:23:28.751Z,-4.79
2022-12-18T11:26:15.594Z,-4.54
2022-12-18T11:29:12.125Z,-4.70
2022-12-18T11:32:14.022Z,-4.45
2022-12-18T11:35:05.858Z,-4.64
2022-12-18T11:37:55.187Z,-4.34
2022-12-18T11:40:45.122Z,-4.30
2022-12-18T11:43:42.502Z,-4.29
2022-12-18T11:46:36.409Z,-4.30
2022-12-18T11:49:30.156Z,-4.19
2022-12-18T11:52:21.215Z,-4.22
2022-12-18T11:55:31.072Z,-4.10
2022-12-18T11:58:31.304Z,-4.19
2022-12-18T12:01:32.573Z,-4.11
2022-12-18T12:04:33.784Z,-4.54
2022-12-18T12:07:25.277Z,-4.27
2022-12-18T12:10:11.932Z,-4.16
2022-12-18T12:13:14.463Z,-4.24
2022-12-18T12:16:10.359Z,-4.12
2022-12-18T12:19:02.823Z,-4.05
2022-12-18T12:21:56.354Z,-4.35
2022-12-18T12:24:54.015Z,-4.02
2022-12-18T12:28:11.860Z,-4.01
2022-12-18T12:31:18.034Z,-3.97
2022-12-18T12:34:25.475Z,-3.99
2022-12-18T12:37:31.408Z,-3.98
2022-12-18T12:40:50.281Z,-3.95
2022-12-18T12:43:37.261Z,-3.93
2022-12-18T12:46:35.327Z,-3.98
2022-12-18T12:49:28.083Z,-4.09
2022-12-18T12:52:47.710Z,-3.88
2022-12-18T12:55:35.453Z,-4.03
2022-12-18T12:58:46.884Z,-3.80
2022-12-18T13:01:43.263Z,-3.84
2022-12-18T13:04:39.456Z,-3.85
2022-12-18T13:07:35.974Z,-3.92
2022-12-18T13:10:32.696Z,-3.88
2022-12-18T13:13:23.597Z,-3.86
2022-12-18T13:16:11.745Z,-4.28
2022-12-18T13:18:59.965Z,-4.15
2022-12-18T13:21:54.885Z,-4.08
2022-12-18T13:24:41.716Z,-4.08
2022-12-18T13:27:47.033Z,-4.15
2022-12-18T13:30:33.912Z,-4.03
2022-12-18T13:33:29.913Z,-4.05
2022-12-18T13:36:49.710Z,-4.13
2022-12-18T13:39:37.922Z,-4.47
2022-12-18T13:42:43.374Z,-4.20
2022-12-18T13:45:43.416Z,-4.57
2022-12-18T13:48:33.756Z,-4.15
2022-12-18T13:51:21.428Z,-4.21
2022-12-18T13:54:21.532Z,-4.30
2022-12-18T13:57:36.304Z,-4.05
2022-12-18T14:00:25.682Z,-4.15
2022-12-18T14:03:24.849Z,-4.26
2022-12-18T14:06:13.848Z,-4.29
2022-12-18T14:09:01.664Z,-4.26
2022-12-18T14:11:50.010Z,-4.32
2022-12-18T14:14:36.739Z,-4.27
2022-12-18T14:17:24.254Z,-4.27
2022-12-18T14:20:15.995Z,-4.24
2022-12-18T14:23:02.725Z,-4.64
2022-12-18T14:25:49.726Z,-4.50
2022-12-18T14:28:45.422Z,-4.47
2022-12-18T14:31:32.912Z,-4.56
2022-12-18T14:34:20.529Z,-4.68
2022-12-18T14:37:30.205Z,-4.64
2022-12-18T14:40:16.752Z,-4.48
2022-12-18T14:43:04.041Z,-4.56
2022-12-18T14:45:51.029Z,-4.83
2022-12-18T14:48:43.061Z,-4.52
2022-12-18T14:51:32.666Z,-4.72
2022-12-18T14:54:21.034Z,-4.63
2022-12-18T14:57:21.337Z,-4.65
2022-12-18T15:00:12.948Z,-4.62
2022-12-18T15:03:00.024Z,-4.54
2022-12-18T15:05:46.793Z,-4.41
2022-12-18T15:08:38.198Z,-4.57
2022-12-18T15:11:30.695Z,-4.68
2022-12-18T15:14:43.458Z,-4.68
2022-12-18T15:17:30.397Z,-5.03
2022-12-18T15:20:16.678Z,-4.94
2022-12-18T15:23:03.851Z,-4.97
2022-12-18T15:26:02.451Z,-4.80
2022-12-18T15:28:51.043Z,-5.14
2022-12-18T15:31:37.654Z,-4.91
2022-12-18T15:34:28.156Z,-4.90
2022-12-18T15:37:15.287Z,-5.06
2022-12-18T15:40:03.671Z,-5.29
2022-12-18T15:43:12.530Z,-5.17
2022-12-18T15:46:00.479Z,-5.31
2022-12-18T15:48:49.955Z,-5.45
2022-12-18T15:51:37.397Z,-5.48
2022-12-18T15:54:44.012Z,-5.56
2022-12-18T15:57:30.616Z,-5.67
2022-12-18T16:00:20.006Z,-6.15
2022-12-18T16:03:07.784Z,-5.77
2022-12-18T16:05:54.924Z,-5.78
2022-12-18T16:08:43.471Z,-5.81
2022-12-18T16:11:41.387Z,-5.73
2022-12-18T16:14:30.722Z,-5.78
2022-12-18T16:17:17.912Z,-5.74
2022-12-18T16:20:05.089Z,-5.79
2022-12-18T16:22:52.456Z,-5.92
2022-12-18T16:25:39.162Z,-5.94
2022-12-18T16:28:25.850Z,-5.89
2022-12-18T16:31:12.948Z,-5.98
2022-12-18T16:34:20.020Z,-6.03
2022-12-18T16:37:13.196Z,-6.03
2022-12-18T16:39:59.927Z,-6.04
2022-12-18T16:42:47.419Z,-5.95
2022-12-18T16:45:34.320Z,-5.88
2022-12-18T16:48:21.028Z,-6.06
2022-12-18T16:51:07.702Z,-6.06
2022-12-18T16:53:59.884Z,-6.17
2022-12-18T16:56:50.022Z,-6.21
2022-12-18T16:59:36.940Z,-6.24
2022-12-18T17:02:26.076Z,-6.15
2022-12-18T17:05:14.748Z,-6.08
2022-12-18T17:08:00.870Z,-6.13
2022-12-18T17:10:47.676Z,-6.25
2022-12-18T17:13:34.655Z,-6.22
2022-12-18T17:16:21.975Z,-6.15
2022-12-18T17:19:13.578Z,-6.34
2022-12-18T17:22:06.285Z,-6.34
2022-12-18T17:24:53.145Z,-6.43
2022-12-18T17:27:40.447Z,-6.43
2022-12-18T17:30:26.706Z,-6.22
2022-12-18T17:33:13.629Z,-6.26
2022-12-18T17:36:00.968Z,-6.33
2022-12-18T17:38:56.683Z,-6.23
2022-12-18T17:41:45.693Z,-6.15
2022-12-18T17:44:34.458Z,-6.26
2022-12-18T17:47:23.607Z,-6.55
2022-12-18T17:50:11.034Z,-6.54
2022-12-18T17:52:58.675Z,-6.42
2022-12-18T17:55:57.000Z,-6.52
2022-12-18T17:58:43.644Z,-6.62
2022-12-18T18:01:30.765Z,-6.43
2022-12-18T18:04:17.456Z,-6.49
2022-12-18T18:07:04.698Z,-6.64
2022-12-18T18:09:51.571Z,-6.54
2022-12-18T18:12:57.948Z,-6.61
2022-12-18T18:15:44.256Z,-6.57
2022-12-18T18:18:39.104Z,-6.61
2022-12-18T18:21:25.757Z,-6.87
2022-12-18T18:24:14.142Z,-6.65
2022-12-18T18:27:00.688Z,-6.64
2022-12-18T18:29:47.888Z,-6.61
2022-12-18T18:32:42.361Z,-6.60
2022-12-18T18:35:53.446Z,-6.50
2022-12-18T18:38:46.739Z,-6.67
2022-12-18T18:41:35.249Z,-6.63
2022-12-18T18:44:24.847Z,-6.69
2022-12-18T18:47:16.171Z,-6.54
2022-12-18T18:50:02.847Z,-6.46
2022-12-18T18:52:51.027Z,-6.76
2022-12-18T18:55:38.857Z,-6.40
2022-12-18T18:58:26.352Z,-6.39
2022-12-18T19:01:18.048Z,-6.43
2022-12-18T19:04:05.158Z,-6.20
2022-12-18T19:06:51.532Z,-6.33
2022-12-18T19:09:38.611Z,-6.39
2022-12-18T19:12:43.724Z,-6.51
2022-12-18T19:15:36.082Z,-6.27
2022-12-18T19:18:22.990Z,-6.24
2022-12-18T19:21:12.855Z,-6.77
2022-12-18T19:24:00.216Z,-6.40
2022-12-18T19:26:48.381Z,-6.55
2022-12-18T19:29:35.128Z,-6.53
2022-12-18T19:32:26.945Z,-6.28
2022-12-18T19:35:15.849Z,-6.19
2022-12-18T19:38:03.360Z,-6.17
2022-12-18T19:40:50.179Z,-6.15
2022-12-18T19:43:37.890Z,-6.24
2022-12-18T19:46:24.246Z,-6.27
2022-12-18T19:49:17.493Z,-6.12
2022-12-18T19:52:05.916Z,-6.12
2022-12-18T19:54:55.042Z,-6.28
2022-12-18T19:57:45.124Z,-6.50
2022-12-18T20:00:32.843Z,-6.21
2022-12-18T20:03:28.912Z,-6.22
2022-12-18T20:06:20.910Z,-6.27
2022-12-18T20:09:07.896Z,-6.33
2022-12-18T20:11:59.327Z,-6.24
2022-12-18T20:14:45.954Z,-6.37
2022-12-18T20:17:33.359Z,-6.40
2022-12-18T20:20:21.289Z,-6.43
2022-12-18T20:23:13.669Z,-6.41
2022-12-18T20:26:00.880Z,-6.35
2022-12-18T20:28:49.745Z,-6.28
2022-12-18T20:31:42.103Z,-6.23
2022-12-18T20:34:30.468Z,-6.27
2022-12-18T20:37:20.071Z,-6.20
2022-12-18T20:40:13.828Z,-6.31
2022-12-18T20:43:01.206Z,-6.56
2022-12-18T20:45:48.039Z,-6.52
2022-12-18T20:48:34.857Z,-6.21
2022-12-18T20:51:22.043Z,-6.25
2022-12-18T20:54:11.757Z,-6.25
2022-12-18T20:56:58.809Z,-6.36
2022-12-18T20:59:48.364Z,-6.26
2022-12-18T21:02:38.175Z,-6.25
2022-12-18T21:05:27.014Z,-6.30
2022-12-18T21:08:14.186Z,-6.53
2022-12-18T21:11:39.002Z,-6.66
2022-12-18T21:14:28.252Z,-6.48
2022-12-18T21:17:15.533Z,-6.63
2022-12-18T21:20:04.800Z,-6.37
2022-12-18T21:22:52.589Z,-6.52
2022-12-18T21:25:42.447Z,-6.43
2022-12-18T21:28:28.775Z,-6.34
2022-12-18T21:31:18.276Z,-6.18
2022-12-18T21:34:05.912Z,-6.25
2022-12-18T21:36:53.997Z,-6.33
2022-12-18T21:39:40.168Z,-6.27
2022-12-18T21:42:45.586Z,-6.35
2022-12-18T21:45:36.516Z,-6.54
2022-12-18T21:48:23.344Z,-6.25
2022-12-18T21:51:17.868Z,-6.34
2022-12-18T21:54:07.957Z,-6.26
2022-12-18T21:57:04.854Z,-6.55
2022-12-18T21:59:51.845Z,-6.56
2022-12-18T22:02:38.330Z,-6.15
2022-12-18T22:05:31.762Z,-6.19
2022-12-18T22:08:17.954Z,-6.53
2022-12-18T22:11:05.212Z,-6.25
2022-12-18T22:13:54.485Z,-6.32
2022-12-18T22:16:44.751Z,-6.80
2022-12-18T22:19:39.499Z,-6.31
2022-12-18T22:22:29.255Z,-6.65
2022-12-18T22:25:15.370Z,-6.70
2022-12-18T22:28:23.460Z,-6.36
2022-12-18T22:31:12.084Z,-6.34
2022-12-18T22:34:00.555Z,-6.36
2022-12-18T22:36:50.926Z,-6.30
2022-12-18T22:39:37.816Z,-6.35
2022-12-18T22:42:24.385Z,-6.41
2022-12-18T22:45:11.434Z,-6.51
2022-12-18T22:47:58.108Z,-6.45
2022-12-18T22:50:44.514Z,-6.36
2022-12-18T22:53:38.546Z,-6.47
2022-12-18T22:56:29.133Z,-6.42
2022-12-18T22:59:21.475Z,-6.42
2022-12-18T23:02:11.148Z,-6.61
2022-12-18T23:04:59.918Z,-6.95
2022-12-18T23:07:46.779Z,-6.95
2022-12-18T23:10:38.847Z,-6.56
2022-12-18T23:13:26.163Z,-6.64
2022-12-18T23:16:18.339Z,-6.74
2022-12-18T23:19:05.961Z,-6.64
2022-12-18T23:21:57.817Z,-6.65
2022-12-18T23:24:44.896Z,-6.80
2022-12-18T23:27:34.487Z,-6.76
2022-12-18T23:30:21.171Z,-6.72
2022-12-18T23:33:07.690Z,-6.78
2022-12-18T23:35:59.172Z,-6.90
2022-12-18T23:38:53.637Z,-6.86
2022-12-18T23:41:40.586Z,-6.85
2022-12-18T23:44:27.837Z,-6.99
2022-12-18T23:47:14.689Z,-7.11
2022-12-18T23:50:15.561Z,-7.05
2022-12-18T23:53:05.288Z,-7.12
2022-12-18T23:55:51.910Z,-7.18
2022-12-18T23:58:39.947Z,-7.03
